createdAt,value
2019-05-02T00:00:41.700Z,100512.25
2019-05-02T00:02:43.590Z,100511.41
2019-05-02T00:04:45.583Z,100514.87
2019-05-02T00:06:48.989Z,100509.95
2019-05-02T00:08:50.570Z,100505.92
2019-05-02T00:10:52.459Z,100504.61
2019-05-02T00:12:54.361Z,100500.27
2019-05-02T00:14:56.525Z,100498.20
2019-05-02T00:16:59.015Z,100500.22
2019-05-02T00:19:00.431Z,100496.12
2019-05-02T00:21:03.227Z,100500.33
2019-05-02T00:23:04.705Z,100493.05
2019-05-02T00:25:06.422Z,100493.05
2019-05-02T00:27:08.084Z,100492.11
2019-05-02T00:29:09.449Z,100492.80
2019-05-02T00:31:11.512Z,100486.03
2019-05-02T00:33:14.234Z,100486.97
2019-05-02T00:35:15.619Z,100494.52
2019-05-02T00:37:18.804Z,100490.31
2019-05-02T00:39:20.471Z,100484.52
2019-05-02T00:41:21.854Z,100483.11
2019-05-02T00:43:23.358Z,100478.63
2019-05-02T00:45:25.931Z,100482.31
2019-05-02T00:47:29.312Z,100482.59
2019-05-02T00:49:30.946Z,100474.87
2019-05-02T00:51:32.482Z,100477.15
2019-05-02T00:53:33.904Z,100473.48
2019-05-02T00:55:35.697Z,100476.32
2019-05-02T00:57:37.082Z,100476.16
2019-05-02T00:59:42.422Z,100481.42
2019-05-02T01:01:49.633Z,100473.67
2019-05-02T01:03:53.848Z,100468.63
2019-05-02T01:05:55.431Z,100467.50
2019-05-02T01:08:01.024Z,100459.31
2019-05-02T01:10:00.419Z,100464.77
2019-05-02T01:12:03.226Z,100457.28
2019-05-02T01:14:05.138Z,100455.52
2019-05-02T01:16:06.499Z,100460.39
2019-05-02T01:18:08.226Z,100461.49
2019-05-02T01:20:09.813Z,100458.45
2019-05-02T01:22:15.852Z,100458.55
2019-05-02T01:24:14.485Z,100454.64
2019-05-02T01:26:16.101Z,100452.47
2019-05-02T01:28:35.901Z,100448.51
2019-05-02T01:30:42.507Z,100444.95
2019-05-02T01:32:47.298Z,100443.31
2019-05-02T01:34:59.462Z,100445.02
2019-05-02T01:37:11.932Z,100443.24
2019-05-02T01:39:12.857Z,100440.09
2019-05-02T01:41:14.339Z,100442.24
2019-05-02T01:43:29.794Z,100442.16
2019-05-02T01:45:31.176Z,100435.67
2019-05-02T01:47:34.186Z,100438.19
2019-05-02T01:49:35.879Z,100430.37
2019-05-02T01:51:41.913Z,100429.12
2019-05-02T01:53:40.546Z,100424.58
2019-05-02T01:55:41.974Z,100428.10
2019-05-02T01:57:44.675Z,100425.53
2019-05-02T01:59:46.653Z,100423.77
2019-05-02T02:01:48.070Z,100425.34
2019-05-02T02:03:49.452Z,100424.75
2019-05-02T02:05:50.815Z,100420.69
2019-05-02T02:07:55.593Z,100419.12
2019-05-02T02:09:55.507Z,100414.42
2019-05-02T02:11:56.868Z,100415.23
2019-05-02T02:13:58.235Z,100410.89
2019-05-02T02:16:00.210Z,100411.23
2019-05-02T02:18:03.746Z,100408.22
2019-05-02T02:20:09.752Z,100406.19
2019-05-02T02:22:15.853Z,100404.09
2019-05-02T02:24:26.319Z,100403.17
2019-05-02T02:26:27.855Z,100403.14
2019-05-02T02:28:31.972Z,100409.73
2019-05-02T02:30:32.704Z,100406.97
2019-05-02T02:32:34.116Z,100406.23
2019-05-02T02:34:35.538Z,100407.28
2019-05-02T02:36:36.924Z,100397.58
2019-05-02T02:38:38.269Z,100400.35
2019-05-02T02:40:39.656Z,100401.77
2019-05-02T02:42:41.058Z,100400.16
2019-05-02T02:44:44.456Z,100402.09
2019-05-02T02:46:47.441Z,100400.30
2019-05-02T02:48:48.865Z,100396.85
2019-05-02T02:50:50.295Z,100397.18
2019-05-02T02:52:51.679Z,100394.83
2019-05-02T02:54:53.043Z,100393.39
2019-05-02T02:56:54.468Z,100392.87
2019-05-02T02:58:55.939Z,100393.96
2019-05-02T03:00:57.927Z,100394.45
2019-05-02T03:02:59.426Z,100391.50
2019-05-02T03:05:00.875Z,100391.70
2019-05-02T03:07:02.357Z,100395.88
2019-05-02T03:09:04.789Z,100392.33
2019-05-02T03:11:06.777Z,100393.81
2019-05-02T03:13:15.155Z,100388.64
2019-05-02T03:15:21.119Z,100396.95
2019-05-02T03:17:25.943Z,100393.27
2019-05-02T03:19:24.767Z,100390.02
2019-05-02T03:21:26.310Z,100398.25
2019-05-02T03:23:27.803Z,100391.77
2019-05-02T03:25:48.637Z,100389.00
2019-05-02T03:27:37.510Z,100385.81
2019-05-02T03:29:41.008Z,100390.02
2019-05-02T03:31:39.765Z,100388.86
2019-05-02T03:33:53.787Z,100389.66
2019-05-02T03:35:48.977Z,100380.64
2019-05-02T03:37:51.365Z,100388.27
2019-05-02T03:39:57.205Z,100383.34
2019-05-02T03:42:02.040Z,100379.00
2019-05-02T03:44:10.406Z,100384.16
2019-05-02T03:46:01.789Z,100379.80
2019-05-02T03:48:03.296Z,100385.87
2019-05-02T03:50:08.956Z,100386.95
2019-05-02T03:52:09.293Z,100382.20
2019-05-02T03:54:10.787Z,100384.94
2019-05-02T03:56:14.199Z,100389.63
2019-05-02T03:58:17.124Z,100393.03
2019-05-02T04:00:21.085Z,100391.77
2019-05-02T04:02:23.073Z,100388.37
2019-05-02T04:04:24.510Z,100393.95
2019-05-02T04:06:25.897Z,100393.89
2019-05-02T04:08:28.128Z,100397.69
2019-05-02T04:10:52.942Z,100401.06
2019-05-02T04:12:53.278Z,100401.86
2019-05-02T04:14:55.987Z,100398.20
2019-05-02T04:16:58.358Z,100403.42
2019-05-02T04:19:01.552Z,100407.84
2019-05-02T04:21:03.059Z,100413.66
2019-05-02T04:23:04.483Z,100410.23
2019-05-02T04:25:06.529Z,100402.08
2019-05-02T04:27:08.805Z,100410.28
2019-05-02T04:29:10.203Z,100412.91
2019-05-02T04:31:11.728Z,100396.69
2019-05-02T04:33:13.117Z,100405.38
2019-05-02T04:35:14.507Z,100408.97
2019-05-02T04:37:15.931Z,100406.11
2019-05-02T04:39:21.254Z,100407.64
2019-05-02T04:41:28.485Z,100409.77
2019-05-02T04:43:23.952Z,100409.64
2019-05-02T04:45:35.883Z,100409.11
2019-05-02T04:47:29.154Z,100409.61
2019-05-02T04:49:35.589Z,100406.83
2019-05-02T04:51:34.015Z,100409.87
2019-05-02T04:53:42.127Z,100405.97
2019-05-02T04:55:41.814Z,100410.53
2019-05-02T04:57:47.331Z,100405.31
2019-05-02T04:59:50.130Z,100405.92
2019-05-02T05:01:57.360Z,100409.05
2019-05-02T05:03:58.592Z,100406.07
2019-05-02T05:05:59.391Z,100413.04
2019-05-02T05:07:59.948Z,100409.70
2019-05-02T05:10:03.850Z,100410.83
2019-05-02T05:12:07.048Z,100410.42
2019-05-02T05:14:09.967Z,100413.50
2019-05-02T05:16:15.484Z,100409.63
2019-05-02T05:18:14.992Z,100412.94
2019-05-02T05:20:18.195Z,100412.25
2019-05-02T05:22:19.686Z,100417.73
2019-05-02T05:24:27.871Z,100417.96
2019-05-02T05:26:38.394Z,100419.16
2019-05-02T05:28:40.480Z,100422.66
2019-05-02T05:30:45.363Z,100430.83
2019-05-02T05:32:43.998Z,100429.72
2019-05-02T05:34:47.697Z,100432.16
2019-05-02T05:36:48.716Z,100435.91
2019-05-02T05:38:50.149Z,100436.81
2019-05-02T05:40:51.540Z,100433.14
2019-05-02T05:42:52.928Z,100429.89
2019-05-02T05:44:54.357Z,100430.66
2019-05-02T05:46:57.980Z,100431.34
2019-05-02T05:48:59.079Z,100425.70
2019-05-02T05:51:00.471Z,100427.67
2019-05-02T05:53:01.907Z,100427.70
2019-05-02T05:55:05.345Z,100427.58
2019-05-02T05:57:07.625Z,100428.36
2019-05-02T05:59:09.266Z,100433.37
2019-05-02T06:01:11.061Z,100428.45
2019-05-02T06:03:14.132Z,100433.50
2019-05-02T06:05:17.488Z,100434.54
2019-05-02T06:07:20.157Z,100435.02
2019-05-02T06:09:26.262Z,100438.75
2019-05-02T06:11:25.141Z,100430.08
2019-05-02T06:13:26.537Z,100432.67
2019-05-02T06:15:27.965Z,100430.52
2019-05-02T06:17:30.435Z,100427.94
2019-05-02T06:19:32.189Z,100427.64
2019-05-02T06:21:33.629Z,100430.27
2019-05-02T06:23:36.371Z,100434.33
2019-05-02T06:25:38.360Z,100429.28
2019-05-02T06:27:39.746Z,100429.22
2019-05-02T06:29:41.171Z,100426.57
2019-05-02T06:31:43.153Z,100430.78
2019-05-02T06:33:45.874Z,100435.31
2019-05-02T06:35:47.300Z,100434.58
2019-05-02T06:37:50.075Z,100426.97
2019-05-02T06:39:52.119Z,100430.66
2019-05-02T06:41:57.516Z,100428.11
2019-05-02T06:43:56.936Z,100430.45
2019-05-02T06:45:58.386Z,100425.58
2019-05-02T06:48:01.240Z,100428.41
2019-05-02T06:50:05.395Z,100429.02
2019-05-02T06:52:06.826Z,100426.30
2019-05-02T06:54:08.260Z,100422.52
2019-05-02T06:56:12.618Z,100421.48
2019-05-02T06:58:13.337Z,100414.95
2019-05-02T07:00:15.359Z,100410.77
2019-05-02T07:02:16.747Z,100411.09
2019-05-02T07:04:23.066Z,100407.98
2019-05-02T07:06:21.710Z,100408.30
2019-05-02T07:08:23.378Z,100404.89
2019-05-02T07:10:25.900Z,100400.66
2019-05-02T07:12:28.150Z,100406.52
2019-05-02T07:14:29.582Z,100403.50
2019-05-02T07:16:38.516Z,100396.94
2019-05-02T07:18:42.028Z,100398.34
2019-05-02T07:20:42.508Z,100396.45
2019-05-02T07:22:45.758Z,100391.10
2019-05-02T07:24:47.361Z,100392.75
2019-05-02T07:26:52.116Z,100385.87
2019-05-02T07:28:52.386Z,100389.33
2019-05-02T07:30:54.786Z,100384.88
2019-05-02T07:33:00.966Z,100390.30
2019-05-02T07:34:59.816Z,100382.76
2019-05-02T07:37:01.236Z,100385.52
2019-05-02T07:39:07.148Z,100387.72
2019-05-02T07:41:08.646Z,100391.31
2019-05-02T07:43:13.480Z,100392.89
2019-05-02T07:45:13.956Z,100394.24
2019-05-02T07:47:15.349Z,100391.61
2019-05-02T07:49:16.775Z,100392.45
2019-05-02T07:51:21.291Z,100396.69
2019-05-02T07:53:22.218Z,100398.21
2019-05-02T07:55:23.714Z,100387.43
2019-05-02T07:57:29.970Z,100390.20
2019-05-02T07:59:28.519Z,100388.61
2019-05-02T08:01:29.953Z,100388.53
2019-05-02T08:03:33.569Z,100388.63
2019-05-02T08:05:34.703Z,100388.07
2019-05-02T08:07:36.225Z,100384.34
2019-05-02T08:09:39.192Z,100386.81
2019-05-02T08:11:41.076Z,100387.94
2019-05-02T08:13:42.531Z,100382.39
2019-05-02T08:15:45.566Z,100378.41
2019-05-02T08:17:53.168Z,100381.04
2019-05-02T08:19:50.575Z,100374.16
2019-05-02T08:21:52.006Z,100373.56
2019-05-02T08:23:57.282Z,100384.77
2019-05-02T08:25:57.014Z,100380.28
2019-05-02T08:28:10.064Z,100381.27
2019-05-02T08:30:17.687Z,100382.02
2019-05-02T08:32:19.105Z,100381.29
2019-05-02T08:34:32.861Z,100392.61
2019-05-02T08:36:34.328Z,100383.09
2019-05-02T08:38:35.717Z,100386.90
2019-05-02T08:40:37.109Z,100381.20
2019-05-02T08:42:38.531Z,100386.96
2019-05-02T08:44:50.612Z,100387.66
2019-05-02T08:46:46.136Z,100386.73
2019-05-02T08:48:46.568Z,100382.40
2019-05-02T08:50:47.996Z,100384.94
2019-05-02T08:52:49.448Z,100388.96
2019-05-02T08:54:50.841Z,100386.16
2019-05-02T08:56:53.122Z,100385.22
2019-05-02T08:58:55.576Z,100387.29
2019-05-02T09:00:56.965Z,100388.70
2019-05-02T09:03:02.547Z,100385.87
2019-05-02T09:05:04.649Z,100393.84
2019-05-02T09:07:05.533Z,100388.94
2019-05-02T09:09:07.320Z,100391.19
2019-05-02T09:11:12.790Z,100386.83
2019-05-02T09:13:15.878Z,100396.58
2019-05-02T09:15:15.634Z,100393.26
2019-05-02T09:17:17.050Z,100391.45
2019-05-02T09:19:21.207Z,100394.70
2019-05-02T09:21:22.031Z,100388.00
2019-05-02T09:23:27.458Z,100387.05
2019-05-02T09:25:26.990Z,100390.80
2019-05-02T09:27:28.386Z,100390.38
2019-05-02T09:29:29.813Z,100387.48
2019-05-02T09:31:32.013Z,100395.56
2019-05-02T09:33:36.890Z,100389.33
2019-05-02T09:35:37.066Z,100391.75
2019-05-02T09:37:38.460Z,100388.31
2019-05-02T09:39:41.525Z,100385.57
2019-05-02T09:41:43.165Z,100386.06
2019-05-02T09:43:44.581Z,100383.90
2019-05-02T09:45:46.000Z,100385.34
2019-05-02T09:47:57.320Z,100382.08
2019-05-02T09:50:05.293Z,100376.92
2019-05-02T09:52:06.686Z,100382.82
2019-05-02T09:54:08.123Z,100382.34
2019-05-02T09:56:09.545Z,100382.84
2019-05-02T09:58:19.495Z,100383.52
2019-05-02T10:00:26.682Z,100379.09
2019-05-02T10:02:29.701Z,100380.54
2019-05-02T10:04:32.590Z,100371.94
2019-05-02T10:06:34.243Z,100376.44
2019-05-02T10:08:38.282Z,100377.81
2019-05-02T10:10:42.621Z,100374.79
2019-05-02T10:12:42.829Z,100371.41
2019-05-02T10:14:44.301Z,100372.93
2019-05-02T10:16:45.744Z,100368.02
2019-05-02T10:18:47.352Z,100364.59
2019-05-02T10:20:48.963Z,100365.16
2019-05-02T10:22:52.825Z,100365.42
2019-05-02T10:24:53.681Z,100355.32
2019-05-02T10:27:03.317Z,100357.36
2019-05-02T10:28:58.395Z,100358.60
2019-05-02T10:30:59.783Z,100368.61
2019-05-02T10:33:02.543Z,100354.83
2019-05-02T10:35:07.085Z,100357.71
2019-05-02T10:37:08.487Z,100353.20
2019-05-02T10:39:15.454Z,100358.83
2019-05-02T10:41:13.210Z,100354.14
2019-05-02T10:43:14.713Z,100348.53
2019-05-02T10:45:16.848Z,100353.05
2019-05-02T10:47:18.348Z,100351.89
2019-05-02T10:49:22.611Z,100353.54
2019-05-02T10:51:28.944Z,100351.20
2019-05-02T10:53:32.216Z,100351.57
2019-05-02T10:55:33.626Z,100346.05
2019-05-02T10:57:35.035Z,100342.34
2019-05-02T10:59:36.423Z,100341.64
2019-05-02T11:01:45.403Z,100344.97
2019-05-02T11:03:48.740Z,100342.81
2019-05-02T11:05:58.048Z,100332.30
2019-05-02T11:08:04.614Z,100336.96
2019-05-02T11:10:06.839Z,100336.49
2019-05-02T11:12:09.489Z,100333.67
2019-05-02T11:14:22.533Z,100334.33
2019-05-02T11:16:28.796Z,100333.68
2019-05-02T11:18:42.334Z,100337.16
2019-05-02T11:20:35.960Z,100340.55
2019-05-02T11:22:37.429Z,100341.91
2019-05-02T11:24:38.866Z,100337.55
2019-05-02T11:26:40.260Z,100348.44
2019-05-02T11:28:41.665Z,100342.58
2019-05-02T11:30:45.506Z,100339.38
2019-05-02T11:32:46.896Z,100342.95
2019-05-02T11:34:48.697Z,100342.44
2019-05-02T11:36:52.492Z,100338.84
2019-05-02T11:39:02.187Z,100337.84
2019-05-02T11:40:56.875Z,100337.42
2019-05-02T11:43:02.803Z,100344.72
2019-05-02T11:45:02.903Z,100341.52
2019-05-02T11:47:04.433Z,100335.25
2019-05-02T11:49:05.821Z,100332.91
2019-05-02T11:51:11.697Z,100338.63
2019-05-02T11:53:23.216Z,100338.83
2019-05-02T11:55:13.863Z,100346.47
2019-05-02T11:57:15.253Z,100342.75
2019-05-02T11:59:22.690Z,100338.94
2019-05-02T12:01:35.022Z,100331.75
2019-05-02T12:03:35.457Z,100331.77
2019-05-02T12:05:35.675Z,100334.53
2019-05-02T12:07:36.702Z,100333.80
2019-05-02T12:09:38.142Z,100332.67
2019-05-02T12:11:39.589Z,100335.00
2019-05-02T12:13:47.403Z,100335.83
2019-05-02T12:15:46.492Z,100329.86
2019-05-02T12:17:47.918Z,100332.45
2019-05-02T12:19:49.515Z,100329.69
2019-05-02T12:21:55.221Z,100335.41
2019-05-02T12:23:56.792Z,100323.56
2019-05-02T12:25:58.357Z,100328.72
2019-05-02T12:28:02.177Z,100328.09
2019-05-02T12:30:04.438Z,100323.38
2019-05-02T12:32:05.826Z,100319.00
2019-05-02T12:34:07.345Z,100320.16
2019-05-02T12:36:09.029Z,100323.10
2019-05-02T12:38:12.214Z,100313.80
2019-05-02T12:40:14.131Z,100312.38
2019-05-02T12:42:15.827Z,100311.02
2019-05-02T12:44:17.583Z,100319.07
2019-05-02T12:46:18.971Z,100314.57
2019-05-02T12:48:22.033Z,100319.24
2019-05-02T12:50:23.580Z,100314.17
2019-05-02T12:52:25.007Z,100309.55
2019-05-02T12:54:26.400Z,100310.11
2019-05-02T12:56:27.851Z,100306.14
2019-05-02T12:58:29.274Z,100307.59
2019-05-02T13:00:31.997Z,100305.69
2019-05-02T13:02:35.528Z,100295.16
2019-05-02T13:04:36.913Z,100297.61
2019-05-02T13:06:38.337Z,100285.97
2019-05-02T13:08:48.724Z,100284.16
2019-05-02T13:11:01.829Z,100282.80
2019-05-02T13:12:58.289Z,100273.53
2019-05-02T13:15:02.023Z,100272.44
2019-05-02T13:17:05.798Z,100272.91
2019-05-02T13:19:07.298Z,100267.34
2019-05-02T13:21:13.302Z,100269.91
2019-05-02T13:23:37.003Z,100266.46
2019-05-02T13:25:37.239Z,100269.48
2019-05-02T13:27:46.132Z,100266.83
2019-05-02T13:29:42.903Z,100263.78
2019-05-02T13:31:55.506Z,100261.11
2019-05-02T13:34:01.930Z,100253.84
2019-05-02T13:36:03.872Z,100264.66
2019-05-02T13:38:05.968Z,100259.69
2019-05-02T13:40:11.985Z,100258.19
2019-05-02T13:42:13.770Z,100258.81
2019-05-02T13:44:17.390Z,100252.72
2019-05-02T13:46:18.979Z,100253.70
2019-05-02T13:48:21.792Z,100254.88
2019-05-02T13:50:23.501Z,100253.83
2019-05-02T13:52:25.949Z,100254.20
2019-05-02T13:54:27.364Z,100249.19
2019-05-02T13:56:45.061Z,100245.37
2019-05-02T13:58:46.325Z,100238.17
2019-05-02T14:00:49.322Z,100236.95
2019-05-02T14:02:51.978Z,100241.73
2019-05-02T14:04:53.625Z,100235.97
2019-05-02T14:06:55.119Z,100234.22
2019-05-02T14:09:07.480Z,100224.66
2019-05-02T14:11:09.688Z,100226.19
2019-05-02T14:13:12.482Z,100217.56
2019-05-02T14:15:16.372Z,100218.89
2019-05-02T14:17:17.791Z,100216.37
2019-05-02T14:19:19.178Z,100214.27
2019-05-02T14:21:22.359Z,100213.29
2019-05-02T14:23:26.530Z,100205.10
2019-05-02T14:25:28.212Z,100207.13
2019-05-02T14:27:31.570Z,100204.44
2019-05-02T14:29:33.112Z,100200.81
2019-05-02T14:31:34.660Z,100203.25
2019-05-02T14:33:37.955Z,100198.80
2019-05-02T14:35:39.386Z,100197.09
2019-05-02T14:37:42.128Z,100195.80
2019-05-02T14:39:45.382Z,100195.75
2019-05-02T14:41:46.765Z,100196.43
2019-05-02T14:43:48.444Z,100189.41
2019-05-02T14:45:50.967Z,100193.85
2019-05-02T14:47:57.564Z,100197.00
2019-05-02T14:50:01.077Z,100189.78
2019-05-02T14:52:02.943Z,100182.79
2019-05-02T14:54:08.329Z,100181.62
2019-05-02T14:56:12.485Z,100173.44
2019-05-02T14:58:13.983Z,100172.87
2019-05-02T15:00:17.014Z,100168.58
2019-05-02T15:02:20.431Z,100167.15
2019-05-02T15:04:22.654Z,100160.95
2019-05-02T15:06:24.271Z,100158.09
2019-05-02T15:08:25.657Z,100150.67
2019-05-02T15:10:27.073Z,100151.92
2019-05-02T15:12:28.458Z,100154.95
2019-05-02T15:14:33.232Z,100159.95
2019-05-02T15:16:41.989Z,100159.13
2019-05-02T15:18:38.220Z,100157.48
2019-05-02T15:20:39.599Z,100158.74
2019-05-02T15:22:42.429Z,100160.10
2019-05-02T15:24:44.135Z,100167.61
2019-05-02T15:26:46.107Z,100167.33
2019-05-02T15:28:47.516Z,100171.09
2019-05-02T15:31:05.850Z,100169.63
2019-05-02T15:33:09.136Z,100164.75
2019-05-02T15:35:31.688Z,100166.56
2019-05-02T15:37:35.705Z,100170.66
2019-05-02T15:41:39.961Z,100165.28
2019-05-02T15:43:44.451Z,100162.34
2019-05-02T15:45:45.374Z,100155.89
2019-05-02T15:47:46.979Z,100146.69
2019-05-02T15:49:50.214Z,100142.35
2019-05-02T15:51:52.361Z,100136.94
2019-05-02T15:54:08.804Z,100143.95
2019-05-02T15:56:18.714Z,100141.41
2019-05-02T15:58:17.175Z,100136.52
2019-05-02T16:00:24.561Z,100137.30
2019-05-02T16:02:26.643Z,100136.59
2019-05-02T16:04:31.985Z,100134.63
2019-05-02T16:06:33.998Z,100135.80
2019-05-02T16:08:37.570Z,100132.98
2019-05-02T16:10:40.055Z,100136.20
2019-05-02T16:12:43.497Z,100128.15
2019-05-02T16:14:44.904Z,100132.66
2019-05-02T16:16:46.344Z,100123.42
2019-05-02T16:18:48.067Z,100119.75
2019-05-02T16:21:04.215Z,100118.28
2019-05-02T16:22:54.641Z,100115.31
2019-05-02T16:24:56.785Z,100116.27
2019-05-02T16:26:58.356Z,100111.59
2019-05-02T16:28:59.736Z,100112.72
2019-05-02T16:31:03.062Z,100109.91
2019-05-02T16:33:08.041Z,100105.78
2019-05-02T16:35:15.370Z,100109.92
2019-05-02T16:37:13.632Z,100105.20
2019-05-02T16:39:15.405Z,100100.03
2019-05-02T16:41:17.052Z,100096.39
2019-05-02T16:43:18.469Z,100093.61
2019-05-02T16:45:22.207Z,100097.30
2019-05-02T16:47:23.781Z,100094.45
2019-05-02T16:49:25.490Z,100096.58
2019-05-02T16:51:30.702Z,100092.47
2019-05-02T16:53:31.626Z,100094.43
2019-05-02T16:55:33.586Z,100092.55
2019-05-02T16:57:35.410Z,100089.31
2019-05-02T16:59:36.803Z,100093.60
2019-05-02T17:01:38.220Z,100095.87
2019-05-02T17:03:39.633Z,100094.38
2019-05-02T17:05:44.293Z,100091.35
2019-05-02T17:08:04.728Z,100090.89
2019-05-02T17:10:13.510Z,100088.39
2019-05-02T17:12:15.212Z,100086.94
2019-05-02T17:14:15.039Z,100093.36
2019-05-02T17:16:17.290Z,100090.30
2019-05-02T17:18:18.906Z,100096.58
2019-05-02T17:20:22.078Z,100092.79
2019-05-02T17:22:25.054Z,100084.53
2019-05-02T17:24:26.630Z,100082.81
2019-05-02T17:26:28.124Z,100081.03
2019-05-02T17:28:31.602Z,100082.90
2019-05-02T17:30:38.556Z,100083.84
2019-05-02T17:32:37.718Z,100082.03
2019-05-02T17:34:39.292Z,100077.94
2019-05-02T17:36:42.659Z,100082.47
2019-05-02T17:38:43.986Z,100076.61
2019-05-02T17:40:45.372Z,100088.22
2019-05-02T17:42:46.784Z,100083.02
2019-05-02T17:44:51.694Z,100080.17
2019-05-02T17:46:58.444Z,100081.42
2019-05-02T17:48:54.916Z,100086.55
2019-05-02T17:51:03.888Z,100080.86
2019-05-02T17:53:07.131Z,100082.98
2019-05-02T17:55:08.956Z,100080.36
2019-05-02T17:57:11.866Z,100087.09
2019-05-02T17:59:13.392Z,100081.75
2019-05-02T18:01:19.300Z,100090.39
2019-05-02T18:03:24.087Z,100083.63
2019-05-02T18:05:26.502Z,100087.39
2019-05-02T18:07:31.816Z,100085.60
2019-05-02T18:09:34.864Z,100086.88
2019-05-02T18:11:37.672Z,100081.13
2019-05-02T18:13:37.533Z,100082.11
2019-05-02T18:15:38.952Z,100081.25
2019-05-02T18:17:42.617Z,100079.50
2019-05-02T18:19:43.649Z,100082.09
2019-05-02T18:21:45.191Z,100084.14
2019-05-02T18:23:46.621Z,100082.50
2019-05-02T18:25:47.996Z,100088.02
2019-05-02T18:27:49.414Z,100089.34
2019-05-02T18:29:51.679Z,100092.73
2019-05-02T18:31:53.191Z,100093.55
2019-05-02T18:33:55.472Z,100090.19
2019-05-02T18:35:56.971Z,100090.53
2019-05-02T18:37:58.352Z,100090.53
2019-05-02T18:39:59.771Z,100087.05
2019-05-02T18:42:01.330Z,100082.80
2019-05-02T18:44:03.312Z,100086.30
2019-05-02T18:46:07.505Z,100083.89
2019-05-02T18:48:08.150Z,100087.78
2019-05-02T18:50:44.409Z,100089.08
2019-05-02T18:52:47.727Z,100084.13
2019-05-02T18:54:47.445Z,100085.42
2019-05-02T18:56:53.055Z,100088.27
2019-05-02T18:58:53.482Z,100089.30
2019-05-02T19:00:55.232Z,100088.13
2019-05-02T19:02:56.925Z,100088.55
2019-05-02T19:04:58.340Z,100088.53
2019-05-02T19:06:59.728Z,100092.09
2019-05-02T19:09:06.950Z,100092.27
2019-05-02T19:11:11.956Z,100093.63
2019-05-02T19:13:12.723Z,100088.27
2019-05-02T19:15:15.050Z,100086.43
2019-05-02T19:17:16.455Z,100086.21
2019-05-02T19:19:17.964Z,100083.12
2019-05-02T19:21:19.553Z,100084.06
2019-05-02T19:23:22.652Z,100083.98
2019-05-02T19:25:24.154Z,100086.68
2019-05-02T19:27:44.129Z,100088.94
2019-05-02T19:29:48.128Z,100093.70
2019-05-02T19:31:49.278Z,100078.86
2019-05-02T19:33:52.624Z,100080.70
2019-05-02T19:35:54.311Z,100078.23
2019-05-02T19:37:55.698Z,100070.97
2019-05-02T19:39:57.380Z,100074.34
2019-05-02T19:41:58.801Z,100080.19
2019-05-02T19:44:02.203Z,100071.73
2019-05-02T19:46:03.913Z,100074.19
2019-05-02T19:48:05.335Z,100078.81
2019-05-02T19:50:32.275Z,100077.94
2019-05-02T19:52:39.222Z,100070.33
2019-05-02T19:54:39.227Z,100071.67
2019-05-02T19:56:46.210Z,100073.94
2019-05-02T19:58:46.592Z,100068.52
2019-05-02T20:00:47.582Z,100077.03
2019-05-02T20:02:49.187Z,100076.11
2019-05-02T20:04:52.007Z,100068.84
2019-05-02T20:06:53.598Z,100074.40
2019-05-02T20:08:59.167Z,100074.98
2019-05-02T20:10:58.584Z,100074.22
2019-05-02T20:13:00.138Z,100079.95
2019-05-02T20:15:01.646Z,100076.62
2019-05-02T20:17:04.152Z,100074.92
2019-05-02T20:19:05.570Z,100079.39
2019-05-02T20:21:11.729Z,100077.23
2019-05-02T20:23:16.162Z,100085.86
2019-05-02T20:25:15.745Z,100085.43
2019-05-02T20:27:17.677Z,100082.59
2019-05-02T20:29:19.069Z,100081.33
2019-05-02T20:31:21.658Z,100086.67
2019-05-02T20:33:23.366Z,100084.94
2019-05-02T20:35:24.753Z,100083.11
2019-05-02T20:37:26.141Z,100093.83
2019-05-02T20:39:27.585Z,100084.26
2019-05-02T20:41:28.974Z,100080.86
2019-05-02T20:43:32.128Z,100075.54
2019-05-02T20:45:33.901Z,100087.55
2019-05-02T20:47:35.285Z,100083.02
2019-05-02T20:49:36.675Z,100084.54
2019-05-02T20:51:38.111Z,100081.41
2019-05-02T20:53:41.542Z,100078.65
2019-05-02T20:55:42.833Z,100081.03
2019-05-02T20:57:44.258Z,100082.88
2019-05-02T20:59:45.851Z,100081.14
2019-05-02T21:01:47.378Z,100078.75
2019-05-02T21:03:48.966Z,100078.75
2019-05-02T21:06:08.857Z,100085.59
2019-05-02T21:08:12.211Z,100080.56
2019-05-02T21:10:27.688Z,100081.55
2019-05-02T21:12:29.199Z,100084.05
2019-05-02T21:14:30.590Z,100086.47
2019-05-02T21:16:32.291Z,100082.77
2019-05-02T21:18:33.916Z,100087.52
2019-05-02T21:20:35.478Z,100084.95
2019-05-02T21:22:36.905Z,100082.92
2019-05-02T21:24:38.301Z,100086.87
2019-05-02T21:26:41.992Z,100094.61
2019-05-02T21:28:43.021Z,100096.72
2019-05-02T21:30:44.410Z,100095.44
2019-05-02T21:32:45.887Z,100099.03
2019-05-02T21:34:47.313Z,100096.84
2019-05-02T21:36:48.740Z,100094.95
2019-05-02T21:38:51.942Z,100096.81
2019-05-02T21:40:53.467Z,100100.38
2019-05-02T21:42:54.868Z,100097.48
2019-05-02T21:44:56.290Z,100108.39
2019-05-02T21:46:57.680Z,100103.58
2019-05-02T21:48:59.138Z,100107.79
2019-05-02T21:51:08.468Z,100103.91
2019-05-02T21:53:22.207Z,100108.31
2019-05-02T21:55:32.364Z,100103.19
2019-05-02T21:57:33.960Z,100107.54
2019-05-02T21:59:35.354Z,100105.50
2019-05-02T22:01:47.852Z,100107.31
2019-05-02T22:03:49.242Z,100102.62
2019-05-02T22:05:50.732Z,100101.98
2019-05-02T22:07:52.376Z,100100.58
2019-05-02T22:09:53.798Z,100102.31
2019-05-02T22:11:55.198Z,100099.38
2019-05-02T22:13:56.653Z,100102.77
2019-05-02T22:15:58.046Z,100104.52
2019-05-02T22:17:59.440Z,100111.28
2019-05-02T22:20:01.857Z,100138.43
2019-05-02T22:22:03.517Z,100132.69
2019-05-02T22:24:11.102Z,100131.34
2019-05-02T22:26:08.274Z,100134.20
2019-05-02T22:28:09.668Z,100138.91
2019-05-02T22:30:12.407Z,100145.47
2019-05-02T22:32:13.984Z,100143.78
2019-05-02T22:34:15.683Z,100148.34
2019-05-02T22:36:17.080Z,100155.90
2019-05-02T22:38:26.198Z,100153.00
2019-05-02T22:40:27.609Z,100149.79
2019-05-02T22:42:29.003Z,100144.85
2019-05-02T22:44:32.353Z,100145.37
2019-05-02T22:46:43.232Z,100142.56
2019-05-02T22:48:44.973Z,100143.08
2019-05-02T22:50:46.453Z,100138.27
2019-05-02T22:52:47.843Z,100145.86
2019-05-02T22:54:49.264Z,100148.48
2019-05-02T22:56:52.116Z,100148.13
2019-05-02T22:58:53.763Z,100142.61
2019-05-02T23:00:55.162Z,100147.05
2019-05-02T23:02:56.598Z,100143.37
2019-05-02T23:04:57.991Z,100141.38
2019-05-02T23:06:59.573Z,100141.80
2019-05-02T23:09:01.989Z,100138.58
2019-05-02T23:11:03.582Z,100141.11
2019-05-02T23:13:05.119Z,100145.81
2019-05-02T23:15:06.837Z,100153.70
2019-05-02T23:17:08.329Z,100160.11
2019-05-02T23:19:12.358Z,100159.61
2019-05-02T23:21:13.750Z,100162.50
2019-05-02T23:23:15.240Z,100165.36
2019-05-02T23:25:35.355Z,100170.95